createdAt,value
2023-03-17T04:47:52.730Z,6.80
2023-03-17T04:50:37.584Z,6.70
2023-03-17T04:53:20.577Z,6.60
2023-03-17T04:56:11.197Z,6.90
2023-03-17T04:58:38.587Z,6.80
2023-03-17T05:01:18.008Z,6.70
2023-03-17T05:04:06.058Z,6.50
2023-03-17T05:06:57.700Z,6.20
2023-03-17T05:09:29.971Z,6.50
2023-03-17T05:15:07.151Z,6.50
2023-03-17T05:17:46.997Z,6.70
2023-03-17T05:26:49.111Z,6.50
2023-03-17T05:29:50.666Z,6.50
2023-03-17T05:32:24.229Z,6.50
2023-03-17T05:35:15.311Z,6.20
2023-03-17T05:38:00.207Z,6.70
2023-03-17T05:41:07.046Z,6.20
2023-03-17T05:43:40.644Z,6.40
2023-03-17T05:49:12.132Z,6.30
2023-03-17T05:52:15.608Z,6.00
2023-03-17T05:54:59.273Z,6.20
2023-03-17T06:01:08.327Z,6.20
2023-03-17T06:04:04.061Z,6.10
2023-03-17T06:06:46.260Z,5.80
2023-03-17T06:09:46.831Z,6.10
2023-03-17T06:12:27.619Z,6.40
2023-03-17T06:17:54.347Z,5.90
2023-03-17T06:20:21.975Z,6.40
2023-03-17T06:23:03.342Z,6.20
2023-03-17T06:25:32.132Z,6.20
2023-03-17T06:28:02.353Z,6.20
2023-03-17T06:30:31.168Z,6.20
2023-03-17T06:32:58.490Z,6.20
2023-03-17T06:35:25.590Z,6.20
2023-03-17T06:37:52.494Z,6.30
2023-03-17T06:40:19.422Z,6.30
2023-03-17T06:42:46.622Z,6.30
2023-03-17T06:45:14.197Z,6.40
2023-03-17T06:47:41.114Z,6.40
2023-03-17T06:50:09.655Z,6.40
2023-03-17T06:52:37.067Z,6.50
2023-03-17T06:55:04.488Z,6.50
2023-03-17T06:57:31.703Z,6.50
2023-03-17T06:59:58.656Z,6.60
2023-03-17T07:02:25.899Z,6.60
2023-03-17T07:04:53.300Z,6.60
2023-03-17T07:07:21.062Z,6.70
2023-03-17T07:09:48.070Z,6.80
2023-03-17T07:12:15.688Z,6.80
2023-03-17T07:14:42.587Z,6.90
2023-03-17T07:17:13.500Z,7.00
2023-03-17T07:19:40.892Z,7.00
2023-03-17T07:22:09.349Z,7.10
2023-03-17T07:24:36.268Z,7.10
2023-03-17T07:27:03.223Z,7.20
2023-03-17T07:29:32.326Z,7.30
2023-03-17T07:31:59.282Z,7.50
2023-03-17T07:34:26.559Z,7.50
2023-03-17T07:36:53.616Z,7.60
2023-03-17T07:39:20.961Z,7.60
2023-03-17T07:41:52.819Z,7.70
2023-03-17T07:44:19.850Z,7.80
2023-03-17T07:46:46.773Z,7.90
2023-03-17T07:49:13.960Z,7.90
2023-03-17T07:51:43.163Z,8.00
2023-03-17T07:54:14.818Z,8.00
2023-03-17T07:56:42.479Z,8.10
2023-03-17T07:59:10.774Z,8.20
2023-03-17T08:01:38.454Z,8.20
2023-03-17T08:04:05.925Z,8.30
2023-03-17T08:06:32.960Z,8.40
2023-03-17T08:08:59.947Z,8.50
2023-03-17T08:11:29.255Z,8.50
2023-03-17T08:13:56.418Z,8.60
2023-03-17T08:16:23.412Z,8.60
2023-03-17T08:18:50.548Z,8.70
2023-03-17T08:21:17.628Z,8.80
2023-03-17T08:23:44.617Z,8.80
2023-03-17T08:26:11.620Z,8.90
2023-03-17T08:28:38.549Z,9.00
2023-03-17T08:31:11.022Z,9.00
2023-03-17T08:33:39.967Z,9.10
2023-03-17T08:36:09.255Z,9.10
2023-03-17T08:38:36.958Z,9.20
2023-03-17T08:41:05.888Z,9.20
2023-03-17T08:43:33.773Z,9.30
2023-03-17T08:46:13.882Z,9.30
2023-03-17T08:48:41.327Z,9.40
2023-03-17T08:51:08.881Z,9.40
2023-03-17T08:53:35.990Z,9.50
2023-03-17T08:56:04.705Z,9.50
2023-03-17T08:58:31.919Z,9.60
2023-03-17T09:01:00.471Z,9.60
2023-03-17T09:03:27.480Z,9.70
2023-03-17T09:05:54.689Z,9.70
2023-03-17T09:08:21.838Z,9.80
2023-03-17T09:10:48.749Z,9.80
2023-03-17T09:13:17.563Z,9.90
2023-03-17T09:15:45.839Z,9.90
2023-03-17T09:18:12.892Z,10.00
2023-03-17T09:20:40.340Z,10.10
2023-03-17T09:23:08.353Z,10.10
2023-03-17T09:25:36.191Z,10.20
2023-03-17T09:28:03.643Z,10.20
2023-03-17T09:30:30.974Z,10.30
2023-03-17T09:32:58.348Z,10.30
2023-03-17T09:35:26.171Z,10.40
2023-03-17T09:37:53.091Z,10.40
2023-03-17T09:40:22.178Z,10.50
2023-03-17T09:42:58.482Z,10.50
2023-03-17T09:45:36.623Z,10.50
2023-03-17T09:48:06.845Z,10.60
2023-03-17T09:50:39.865Z,10.70
2023-03-17T09:53:12.433Z,10.70
2023-03-17T09:55:39.565Z,10.80
2023-03-17T09:58:09.894Z,10.80
2023-03-17T10:00:36.957Z,10.90
2023-03-17T10:03:06.247Z,11.00
2023-03-17T10:05:35.612Z,11.10
2023-03-17T10:08:10.857Z,11.10
2023-03-17T10:10:48.214Z,11.20
2023-03-17T10:13:17.975Z,11.20
2023-03-17T10:15:54.006Z,11.40
2023-03-17T10:18:24.219Z,11.40
2023-03-17T10:21:11.615Z,11.50
2023-03-17T10:23:39.426Z,11.60
2023-03-17T10:26:17.266Z,11.70
2023-03-17T10:28:44.400Z,11.70
2023-03-17T10:31:17.012Z,11.80
2023-03-17T10:33:44.679Z,11.90
2023-03-17T10:36:14.480Z,12.00
2023-03-17T10:38:41.425Z,12.00
2023-03-17T10:41:13.401Z,12.10
2023-03-17T10:43:50.614Z,12.20
2023-03-17T10:46:23.260Z,12.20
2023-03-17T10:48:54.803Z,12.30
2023-03-17T10:51:30.612Z,12.40
2023-03-17T10:53:59.948Z,12.50
2023-03-17T10:56:27.928Z,12.50
2023-03-17T10:58:55.547Z,12.50
2023-03-17T11:01:27.795Z,12.60
2023-03-17T11:03:55.866Z,12.70
2023-03-17T11:06:34.107Z,12.60
2023-03-17T11:09:05.861Z,12.70
2023-03-17T11:11:41.686Z,12.70
2023-03-17T11:14:13.401Z,12.80
2023-03-17T11:16:48.093Z,12.80
2023-03-17T11:19:16.740Z,12.90
2023-03-17T11:22:02.635Z,12.90
2023-03-17T11:24:32.132Z,12.90
2023-03-17T11:27:00.198Z,13.00
2023-03-17T11:29:27.095Z,13.00
2023-03-17T11:32:03.284Z,13.10
2023-03-17T11:34:49.486Z,13.10
2023-03-17T11:37:16.383Z,13.20
2023-03-17T11:39:49.560Z,13.30
2023-03-17T11:42:25.837Z,13.30
2023-03-17T11:45:19.042Z,13.40
2023-03-17T11:47:49.083Z,13.40
2023-03-17T11:50:30.650Z,13.40
2023-03-17T11:53:04.109Z,13.50
2023-03-17T11:55:38.208Z,13.60
2023-03-17T11:58:10.521Z,13.60
2023-03-17T12:00:45.814Z,13.70
2023-03-17T12:03:23.163Z,13.80
2023-03-17T12:05:54.761Z,13.90
2023-03-17T12:08:28.157Z,14.00
2023-03-17T12:10:57.159Z,14.10
2023-03-17T12:13:30.074Z,14.10
2023-03-17T12:15:59.838Z,14.20
2023-03-17T12:18:31.004Z,14.20
2023-03-17T12:21:00.195Z,14.20
2023-03-17T12:23:39.578Z,14.30
2023-03-17T12:26:13.820Z,14.40
2023-03-17T12:28:45.104Z,14.50
2023-03-17T12:31:14.059Z,14.50
2023-03-17T12:33:49.622Z,14.60
2023-03-17T12:36:17.530Z,14.80
2023-03-17T12:38:50.493Z,14.70
2023-03-17T12:41:31.453Z,14.70
2023-03-17T12:44:13.488Z,14.80
2023-03-17T12:46:40.514Z,14.90
2023-03-17T12:49:25.934Z,14.90
2023-03-17T12:51:56.967Z,15.00
2023-03-17T12:54:28.991Z,15.00
2023-03-17T12:57:02.194Z,15.10
2023-03-17T12:59:31.272Z,15.20
2023-03-17T13:02:06.177Z,15.20
2023-03-17T13:04:37.560Z,15.20
2023-03-17T13:07:05.278Z,15.20
2023-03-17T13:09:32.320Z,15.20
2023-03-17T13:12:00.467Z,15.30
2023-03-17T13:14:47.708Z,15.30
2023-03-17T13:17:17.851Z,15.40
2023-03-17T13:19:55.957Z,15.40
2023-03-17T13:22:22.879Z,15.50
2023-03-17T13:24:53.361Z,15.50
2023-03-17T13:27:20.356Z,15.60
2023-03-17T13:29:47.461Z,15.70
2023-03-17T13:32:17.120Z,15.70
2023-03-17T13:34:45.468Z,15.70
2023-03-17T13:37:12.530Z,15.90
2023-03-17T13:39:49.767Z,15.80
2023-03-17T13:42:19.388Z,15.80
2023-03-17T13:44:53.954Z,15.80
2023-03-17T13:47:24.211Z,15.90
2023-03-17T13:49:57.151Z,15.90
2023-03-17T13:52:27.863Z,15.90
2023-03-17T13:55:13.482Z,16.00
2023-03-17T13:57:40.424Z,16.00
2023-03-17T14:00:07.287Z,16.10
2023-03-17T14:02:38.474Z,16.20
2023-03-17T14:05:07.839Z,16.10
2023-03-17T14:07:47.852Z,16.20
2023-03-17T14:10:22.087Z,16.30
2023-03-17T14:12:51.118Z,16.30
2023-03-17T14:15:21.884Z,16.30
2023-03-17T14:18:11.863Z,16.40
2023-03-17T14:20:38.808Z,16.50
2023-03-17T14:23:06.584Z,16.50
2023-03-17T14:25:34.803Z,16.50
2023-03-17T14:28:03.944Z,16.60
2023-03-17T14:30:33.095Z,16.60
2023-03-17T14:33:02.934Z,16.60
2023-03-17T14:35:34.925Z,16.60
2023-03-17T14:38:02.167Z,16.70
2023-03-17T14:40:32.335Z,16.70
2023-03-17T14:42:59.299Z,16.70
2023-03-17T14:45:31.065Z,16.70
2023-03-17T14:47:58.220Z,16.70
2023-03-17T14:50:25.345Z,16.80
2023-03-17T14:52:52.433Z,16.80
2023-03-17T14:55:19.830Z,16.80
2023-03-17T14:57:51.525Z,16.90
2023-03-17T15:00:34.164Z,16.90
2023-03-17T15:03:03.432Z,16.90
2023-03-17T15:05:37.573Z,16.90
2023-03-17T15:08:24.442Z,17.00
2023-03-17T15:10:51.333Z,17.00
2023-03-17T15:13:18.238Z,17.00
2023-03-17T15:15:45.396Z,17.00
2023-03-17T15:18:13.904Z,17.00
2023-03-17T15:20:43.022Z,17.00
2023-03-17T15:23:20.610Z,17.00
2023-03-17T15:25:55.635Z,17.00
2023-03-17T15:28:26.410Z,17.00
2023-03-17T15:30:55.043Z,17.00
2023-03-17T15:33:29.698Z,17.00
2023-03-17T15:35:56.917Z,17.00
2023-03-17T15:38:24.626Z,17.10
2023-03-17T15:40:51.518Z,17.10
2023-03-17T15:43:19.154Z,17.00
2023-03-17T15:45:46.251Z,17.00
2023-03-17T15:48:20.152Z,17.00
2023-03-17T15:50:48.267Z,17.00
2023-03-17T15:53:15.400Z,17.00
2023-03-17T15:55:42.394Z,17.00
2023-03-17T15:58:09.299Z,17.10
2023-03-17T16:00:36.442Z,17.10
2023-03-17T16:03:21.895Z,17.10
2023-03-17T16:05:48.942Z,17.10
2023-03-17T16:08:17.808Z,17.10
2023-03-17T16:10:45.135Z,17.10
2023-03-17T16:13:12.415Z,17.10
2023-03-17T16:15:43.506Z,17.10
2023-03-17T16:18:13.700Z,17.10
2023-03-17T16:20:41.781Z,17.10
2023-03-17T16:23:12.488Z,17.10
2023-03-17T16:25:39.474Z,17.10
2023-03-17T16:28:35.533Z,17.10
2023-03-17T16:31:04.380Z,17.10
2023-03-17T16:33:35.660Z,17.10
2023-03-17T16:36:02.615Z,17.10
2023-03-17T16:38:30.544Z,17.10
2023-03-17T16:41:01.759Z,17.10
2023-03-17T16:43:29.725Z,17.00
2023-03-17T16:46:02.185Z,17.00
2023-03-17T16:48:29.727Z,17.00
2023-03-17T16:50:57.174Z,16.90
2023-03-17T16:53:24.900Z,16.90
2023-03-17T16:55:53.072Z,16.80
2023-03-17T16:58:22.401Z,16.80
2023-03-17T17:00:50.231Z,16.70
2023-03-17T17:03:17.292Z,16.70
2023-03-17T17:05:44.432Z,16.60
2023-03-17T17:08:11.458Z,16.60
2023-03-17T17:10:38.967Z,16.60
2023-03-17T17:13:07.824Z,16.50
2023-03-17T17:15:35.508Z,16.50
2023-03-17T17:18:07.023Z,16.50
2023-03-17T17:20:35.998Z,16.40
2023-03-17T17:23:03.401Z,16.40
2023-03-17T17:25:30.589Z,16.30
2023-03-17T17:27:58.317Z,16.50
2023-03-17T17:30:28.004Z,16.30
2023-03-17T17:32:57.062Z,16.20
2023-03-17T17:35:25.213Z,16.20
2023-03-17T17:37:52.287Z,16.10
2023-03-17T17:40:20.283Z,16.00
2023-03-17T17:42:47.588Z,15.90
2023-03-17T17:45:15.296Z,15.90
2023-03-17T17:47:42.403Z,15.90
2023-03-17T17:50:11.557Z,15.90
2023-03-17T17:52:38.497Z,15.80
2023-03-17T17:55:05.520Z,15.80
2023-03-17T17:57:32.471Z,15.70
2023-03-17T17:59:59.502Z,15.70
2023-03-17T18:02:26.490Z,15.70
2023-03-17T18:04:53.618Z,15.60
2023-03-17T18:07:20.577Z,15.70
2023-03-17T18:09:47.445Z,15.60
2023-03-17T18:12:14.420Z,15.50
2023-03-17T18:14:41.381Z,15.50
2023-03-17T18:17:08.915Z,15.60
2023-03-17T18:19:35.815Z,15.40
2023-03-17T18:22:03.649Z,15.50
2023-03-17T18:24:31.131Z,15.30
2023-03-17T18:26:58.120Z,15.20
2023-03-17T18:29:25.157Z,15.20
2023-03-17T18:31:53.612Z,15.10
2023-03-17T18:34:25.915Z,15.10
2023-03-17T18:36:54.046Z,15.00
2023-03-17T18:39:21.064Z,15.10
2023-03-17T18:41:48.416Z,15.00
2023-03-17T18:44:15.706Z,14.90
2023-03-17T18:46:42.779Z,14.90
2023-03-17T18:49:09.794Z,14.90
2023-03-17T18:51:36.727Z,14.80
2023-03-17T18:54:04.726Z,14.80
2023-03-17T18:56:32.081Z,14.70
2023-03-17T18:58:59.209Z,14.60
2023-03-17T19:01:27.136Z,14.60
2023-03-17T19:03:54.134Z,14.50
2023-03-17T19:06:21.918Z,14.50
2023-03-17T19:08:49.235Z,14.50
2023-03-17T19:11:18.306Z,14.60
2023-03-17T19:13:45.588Z,14.40
2023-03-17T19:16:13.111Z,14.30
2023-03-17T19:18:42.439Z,14.30
2023-03-17T19:21:09.806Z,14.20
2023-03-17T19:23:38.223Z,14.20
2023-03-17T19:26:05.456Z,14.20
2023-03-17T19:28:32.861Z,14.10
2023-03-17T19:31:00.019Z,14.10
2023-03-17T19:33:28.765Z,14.10
2023-03-17T19:35:57.163Z,14.10
2023-03-17T19:38:24.387Z,14.10
2023-03-17T19:40:51.808Z,14.10
2023-03-17T19:43:36.754Z,14.00
2023-03-17T19:46:05.826Z,14.10
2023-03-17T19:48:33.459Z,14.00
2023-03-17T19:51:01.496Z,13.90
2023-03-17T19:53:28.488Z,13.90
2023-03-17T19:55:56.675Z,13.80
2023-03-17T19:58:23.778Z,13.80
2023-03-17T20:00:51.459Z,13.80
2023-03-17T20:03:18.789Z,13.70
2023-03-17T20:05:46.416Z,13.70
2023-03-17T20:08:15.254Z,13.60
2023-03-17T20:10:42.180Z,13.60
2023-03-17T20:13:09.414Z,13.60
2023-03-17T20:15:36.664Z,13.50
2023-03-17T20:18:03.900Z,13.50
2023-03-17T20:20:31.338Z,13.50
2023-03-17T20:22:58.392Z,13.50
2023-03-17T20:25:25.449Z,13.50
2023-03-17T20:27:53.313Z,13.40
2023-03-17T20:30:20.374Z,13.40
2023-03-17T20:32:47.322Z,13.40
2023-03-17T20:35:14.322Z,13.30
2023-03-17T20:37:41.386Z,13.30
2023-03-17T20:40:10.782Z,13.30
2023-03-17T20:42:37.825Z,13.30
2023-03-17T20:45:05.006Z,13.20
2023-03-17T20:47:31.994Z,13.20
2023-03-17T20:49:59.417Z,13.20
2023-03-17T20:52:29.973Z,13.20
2023-03-17T20:54:59.377Z,13.10
2023-03-17T20:57:26.383Z,13.10
2023-03-17T20:59:53.306Z,13.00
2023-03-17T21:02:20.797Z,13.00
2023-03-17T21:04:48.889Z,12.90
2023-03-17T21:07:16.899Z,12.90
2023-03-17T21:09:44.980Z,13.00
2023-03-17T21:12:16.073Z,12.90
2023-03-17T21:14:43.055Z,12.80
2023-03-17T21:17:10.714Z,12.80
2023-03-17T21:19:37.845Z,12.70
2023-03-17T21:22:05.267Z,12.70
2023-03-17T21:24:33.667Z,12.70
2023-03-17T21:27:05.108Z,12.70
2023-03-17T21:29:33.167Z,12.70
2023-03-17T21:32:00.976Z,12.70
2023-03-17T21:34:28.794Z,12.70
2023-03-17T21:36:57.132Z,12.60
2023-03-17T21:39:24.695Z,12.50
2023-03-17T21:41:52.163Z,12.50
2023-03-17T21:44:19.212Z,12.50
2023-03-17T21:46:47.745Z,12.60
2023-03-17T21:49:16.283Z,12.50
2023-03-17T21:51:44.533Z,12.40
2023-03-17T21:54:11.839Z,12.40
2023-03-17T21:56:39.898Z,12.50
2023-03-17T21:59:10.820Z,12.30
2023-03-17T22:01:38.966Z,12.30
2023-03-17T22:04:06.092Z,12.40
2023-03-17T22:06:33.449Z,12.30
2023-03-17T22:09:00.455Z,12.40
2023-03-17T22:11:27.368Z,12.30
2023-03-17T22:13:54.364Z,12.30
2023-03-17T22:16:21.644Z,12.30
2023-03-17T22:18:48.680Z,12.30
2023-03-17T22:21:15.609Z,12.30
2023-03-17T22:23:42.618Z,12.40
2023-03-17T22:26:12.373Z,12.30
2023-03-17T22:28:40.652Z,12.30
2023-03-17T22:31:11.448Z,12.20
2023-03-17T22:33:39.156Z,12.20
2023-03-17T22:36:06.309Z,12.20
2023-03-17T22:38:34.986Z,12.20
2023-03-17T22:41:02.938Z,12.10
2023-03-17T22:43:29.989Z,12.10
2023-03-17T22:45:56.954Z,12.10
2023-03-17T22:48:23.961Z,12.00
2023-03-17T22:50:51.055Z,12.00
2023-03-17T22:53:18.021Z,11.90
2023-03-17T22:55:44.953Z,12.00
2023-03-17T22:58:12.079Z,12.00
2023-03-17T23:00:40.202Z,12.10
2023-03-17T23:03:07.297Z,12.00
2023-03-17T23:05:34.216Z,12.00
2023-03-17T23:08:01.490Z,11.90
2023-03-17T23:10:28.531Z,11.90
2023-03-17T23:12:55.520Z,11.90
2023-03-17T23:15:22.654Z,11.90
2023-03-17T23:17:49.744Z,11.80
2023-03-17T23:20:17.017Z,11.80
2023-03-17T23:22:43.936Z,11.80
2023-03-17T23:25:13.524Z,11.80
2023-03-17T23:27:40.906Z,11.70
2023-03-17T23:30:10.110Z,11.70
2023-03-17T23:32:40.599Z,11.70
2023-03-17T23:35:08.463Z,11.60
2023-03-17T23:37:36.032Z,11.60
2023-03-17T23:40:04.329Z,11.60
2023-03-17T23:42:31.338Z,11.70
2023-03-17T23:44:59.220Z,11.60
2023-03-17T23:47:26.987Z,11.60
2023-03-17T23:49:54.016Z,11.70
2023-03-17T23:52:21.956Z,11.70
2023-03-17T23:54:49.092Z,11.70
2023-03-17T23:57:16.092Z,11.70
2023-03-17T23:59:43.402Z,11.60
